Time;durP1;ratioP1;P1;durP2;ratioP2;P2;SDS_P1;SDS_P2;PMS_P1;PMS_P2;Temp;Humidity;BMP_temperature;BMP_pressure;BME280_temperature;BME280_humidity;BME280_pressure;Samples;Min_cycle;Max_cycle;Signal;HPM_P1;HPM_P2
2023/07/24 00:00:47;;;;;;;5.80;4.10;;;26.00;32.90;;;;;;5077970;28;20201;-53
2023/07/24 00:03:12;;;;;;;5.13;4.17;;;25.90;33.00;;;;;;5078610;28;20449;-50
2023/07/24 00:05:38;;;;;;;4.30;3.60;;;25.90;32.60;;;;;;5078344;28;20536;-50
2023/07/24 00:08:04;;;;;;;4.60;3.83;;;25.90;32.80;;;;;;5078321;28;20180;-53
2023/07/24 00:10:30;;;;;;;4.20;3.80;;;25.80;33.70;;;;;;5077880;28;20234;-51
2023/07/24 00:12:56;;;;;;;5.83;4.57;;;25.80;33.50;;;;;;5078131;28;20498;-53
2023/07/24 00:15:22;;;;;;;4.73;4.10;;;25.70;33.70;;;;;;5078244;28;20521;-51
2023/07/24 00:17:47;;;;;;;5.37;3.90;;;25.70;34.30;;;;;;5078176;28;20176;-53
2023/07/24 00:20:13;;;;;;;5.50;4.33;;;25.60;34.20;;;;;;5077871;28;20433;-53
2023/07/24 00:22:40;;;;;;;4.30;3.33;;;25.60;34.50;;;;;;5078037;28;20169;-50
2023/07/24 00:25:08;;;;;;;5.60;3.83;;;25.50;34.00;;;;;;5078538;28;20250;-52
2023/07/24 00:27:34;;;;;;;5.60;4.27;;;25.50;34.80;;;;;;5078390;28;20422;-53
2023/07/24 00:30:00;;;;;;;4.10;3.70;;;25.50;34.90;;;;;;5077773;28;20430;-52
2023/07/24 00:32:26;;;;;;;4.53;4.13;;;25.40;33.90;;;;;;5078285;28;20610;-51
2023/07/24 00:34:52;;;;;;;4.07;3.23;;;25.50;33.40;;;;;;5078139;28;20464;-53
2023/07/24 00:37:17;;;;;;;5.73;3.27;;;25.50;34.20;;;;;;5077987;28;20212;-52
2023/07/24 00:39:43;;;;;;;4.20;3.80;;;25.40;34.20;;;;;;5077773;28;20199;-52
2023/07/24 00:42:09;;;;;;;5.57;4.10;;;25.40;34.20;;;;;;5077858;28;20636;-53
2023/07/24 00:44:36;;;;;;;4.60;4.20;;;25.50;34.40;;;;;;5078007;28;20172;-53
2023/07/24 00:47:02;;;;;;;5.07;4.40;;;25.40;34.40;;;;;;5077864;28;20268;-53
2023/07/24 00:49:28;;;;;;;5.07;4.27;;;25.50;34.90;;;;;;5073897;28;20493;-52
2023/07/24 00:51:53;;;;;;;5.47;4.33;;;25.40;35.20;;;;;;5074850;28;20239;-52
2023/07/24 00:54:20;;;;;;;4.50;4.10;;;25.40;35.40;;;;;;5074776;28;20840;-52
2023/07/24 00:56:46;;;;;;;5.70;3.80;;;25.40;35.50;;;;;;5074715;28;20222;-52
2023/07/24 00:59:12;;;;;;;6.37;3.67;;;25.40;35.20;;;;;;5074466;28;20399;-52
2023/07/24 01:01:41;;;;;;;5.13;4.37;;;25.40;35.20;;;;;;5074596;28;20433;-54
2023/07/24 01:04:08;;;;;;;5.47;4.93;;;25.40;35.80;;;;;;5074570;28;20410;-53
2023/07/24 01:06:33;;;;;;;7.57;4.60;;;25.30;35.90;;;;;;5074760;28;20437;-51
2023/07/24 01:08:59;;;;;;;4.83;3.67;;;25.30;36.20;;;;;;5074453;28;21071;-54
2023/07/24 01:11:32;;;;;;;6.47;4.40;;;25.30;36.70;;;;;;5074301;28;20473;-51
2023/07/24 01:14:45;;;;;;;4.23;3.70;;;25.30;36.40;;;;;;5074390;28;20291;-53
2023/07/24 01:17:17;;;;;;;5.97;4.50;;;25.30;36.50;;;;;;5073590;28;20419;-51
2023/07/24 01:19:49;;;;;;;4.17;3.77;;;25.20;36.90;;;;;;5073908;28;20437;-53
2023/07/24 01:22:28;;;;;;;6.57;4.03;;;25.10;37.20;;;;;;5074275;28;20418;-51
2023/07/24 01:25:23;;;;;;;4.30;3.90;;;25.10;37.20;;;;;;5074276;28;20502;-53
2023/07/24 01:27:48;;;;;;;4.87;4.37;;;25.00;37.10;;;;;;5074149;28;20543;-51
2023/07/24 01:30:17;;;;;;;7.83;4.27;;;24.90;37.00;;;;;;5073467;28;20942;-54
2023/07/24 01:32:43;;;;;;;9.80;5.00;;;24.90;37.00;;;;;;5073950;28;20419;-54
2023/07/24 01:35:09;;;;;;;4.20;3.70;;;24.90;36.70;;;;;;5073884;28;20411;-52
2023/07/24 01:37:37;;;;;;;5.90;5.30;;;24.90;36.50;;;;;;5073854;28;20414;-51
2023/07/24 01:40:04;;;;;;;3.60;3.20;;;24.90;37.00;;;;;;5073637;28;20438;-53
2023/07/24 01:42:30;;;;;;;4.40;3.80;;;24.90;37.20;;;;;;5073916;28;20410;-54
2023/07/24 01:44:56;;;;;;;6.47;4.07;;;24.90;36.80;;;;;;5073665;28;20442;-53
2023/07/24 01:47:22;;;;;;;4.70;4.10;;;24.80;36.70;;;;;;5073926;28;20462;-51
2023/07/24 01:49:48;;;;;;;4.50;3.70;;;24.80;36.00;;;;;;5073387;28;20287;-51
2023/07/24 01:52:14;;;;;;;4.80;4.13;;;24.90;35.40;;;;;;5073544;28;20486;-53
2023/07/24 01:54:40;;;;;;;4.73;3.77;;;24.90;35.30;;;;;;5073568;28;20492;-51
2023/07/24 01:57:06;;;;;;;5.20;3.87;;;24.90;35.50;;;;;;5073488;28;20180;-52
2023/07/24 01:59:32;;;;;;;5.67;3.93;;;24.90;35.90;;;;;;5072727;28;20418;-51
2023/07/24 02:01:58;;;;;;;6.33;4.10;;;24.90;36.20;;;;;;5073544;28;20822;-51
2023/07/24 02:04:24;;;;;;;4.50;3.77;;;24.90;36.00;;;;;;5073393;28;20644;-53
2023/07/24 02:06:50;;;;;;;6.37;4.03;;;24.90;35.90;;;;;;5073315;28;20208;-51
2023/07/24 02:09:19;;;;;;;5.30;4.07;;;24.90;36.10;;;;;;5073069;28;20548;-53
2023/07/24 02:11:45;;;;;;;6.07;4.77;;;24.90;36.30;;;;;;5073035;28;20535;-51
2023/07/24 02:14:12;;;;;;;4.37;3.60;;;24.90;36.60;;;;;;5072960;28;20427;-51
2023/07/24 02:16:38;;;;;;;3.90;3.53;;;24.90;36.60;;;;;;5073154;28;20403;-53
2023/07/24 02:19:05;;;;;;;5.43;4.53;;;25.00;37.50;;;;;;5073138;28;20411;-51
2023/07/24 02:21:31;;;;;;;5.33;4.83;;;24.90;36.90;;;;;;5072851;28;20450;-53
2023/07/24 02:23:57;;;;;;;4.77;4.07;;;24.90;37.50;;;;;;5073185;28;20415;-53
2023/07/24 02:26:23;;;;;;;5.10;4.60;;;24.80;36.70;;;;;;5072894;28;20767;-52
2023/07/24 02:28:48;;;;;;;4.70;4.07;;;24.80;37.10;;;;;;5072726;28;20413;-51
2023/07/24 02:31:14;;;;;;;5.80;4.50;;;24.80;37.10;;;;;;5072640;28;20264;-53
2023/07/24 02:33:40;;;;;;;8.93;4.67;;;24.80;37.50;;;;;;5072758;28;20640;-50
2023/07/24 02:36:06;;;;;;;7.70;3.83;;;24.80;37.40;;;;;;5072702;28;20398;-50
2023/07/24 02:38:32;;;;;;;4.50;4.03;;;24.70;37.70;;;;;;5072667;28;20267;-53
2023/07/24 02:40:57;;;;;;;5.37;4.60;;;24.70;37.70;;;;;;5072320;28;20279;-50
2023/07/24 02:43:23;;;;;;;5.30;4.20;;;24.70;37.90;;;;;;5072818;28;20184;-53
2023/07/24 02:45:49;;;;;;;4.87;4.20;;;24.70;38.20;;;;;;5072666;28;20537;-50
2023/07/24 02:48:15;;;;;;;6.27;4.30;;;24.60;38.50;;;;;;5072506;28;20411;-50
2023/07/24 02:50:41;;;;;;;5.77;4.30;;;24.60;37.90;;;;;;5072103;28;20208;-53
2023/07/24 02:53:07;;;;;;;4.03;3.63;;;24.50;38.20;;;;;;5072429;28;20183;-51
2023/07/24 02:55:33;;;;;;;4.70;4.20;;;24.50;38.40;;;;;;5072871;28;20182;-53
2023/07/24 02:57:58;;;;;;;8.13;4.00;;;24.50;38.40;;;;;;5072316;28;20415;-54
2023/07/24 03:00:24;;;;;;;4.50;4.10;;;24.40;37.70;;;;;;5072377;28;20589;-51
2023/07/24 03:02:52;;;;;;;7.00;3.80;;;24.40;38.10;;;;;;5072392;28;20168;-52
2023/07/24 03:05:18;;;;;;;4.80;4.20;;;24.50;38.20;;;;;;5072292;28;20411;-54
2023/07/24 03:07:43;;;;;;;5.13;4.00;;;24.50;38.00;;;;;;5072286;28;20403;-53
2023/07/24 03:10:09;;;;;;;6.47;4.70;;;24.50;38.30;;;;;;5071914;28;20249;-51
2023/07/24 03:12:35;;;;;;;5.13;4.30;;;24.50;38.40;;;;;;5071672;28;20184;-51
2023/07/24 03:15:01;;;;;;;6.50;4.77;;;24.40;38.20;;;;;;5072095;28;20446;-53
2023/07/24 03:17:27;;;;;;;5.10;4.23;;;24.50;38.10;;;;;;5072221;28;20402;-51
2023/07/24 03:19:55;;;;;;;4.60;4.07;;;24.50;37.00;;;;;;5071766;28;20446;-51
2023/07/24 03:22:21;;;;;;;5.47;4.90;;;24.50;37.30;;;;;;5072336;28;20410;-53
2023/07/24 03:24:46;;;;;;;5.13;4.60;;;24.50;37.10;;;;;;5072326;28;20419;-53
2023/07/24 03:27:12;;;;;;;4.73;4.00;;;24.60;36.80;;;;;;5072163;28;20681;-51
2023/07/24 03:29:40;;;;;;;4.67;3.83;;;24.70;37.60;;;;;;5072114;28;20645;-53
2023/07/24 03:32:07;;;;;;;15.20;4.43;;;24.70;37.70;;;;;;5071822;28;20462;-51
2023/07/24 03:34:33;;;;;;;6.07;4.80;;;24.80;37.40;;;;;;5072023;28;20403;-51
2023/07/24 03:36:58;;;;;;;4.40;3.87;;;24.80;36.80;;;;;;5071898;28;20407;-53
2023/07/24 03:39:24;;;;;;;8.23;4.83;;;24.90;37.10;;;;;;5071579;28;20177;-51
2023/07/24 03:41:50;;;;;;;6.87;4.80;;;24.90;37.00;;;;;;5071751;28;20193;-53
2023/07/24 03:44:16;;;;;;;5.00;4.10;;;24.80;37.10;;;;;;5071859;28;20485;-51
2023/07/24 03:46:42;;;;;;;5.07;4.50;;;24.90;36.70;;;;;;5071886;28;20173;-51
2023/07/24 03:49:07;;;;;;;4.40;4.00;;;24.90;36.50;;;;;;5071824;28;20169;-51
2023/07/24 03:51:33;;;;;;;8.40;4.63;;;24.90;36.30;;;;;;5071587;28;20200;-53
2023/07/24 03:53:59;;;;;;;5.50;4.70;;;25.00;36.50;;;;;;5071671;28;20172;-50
2023/07/24 03:56:25;;;;;;;4.47;3.83;;;25.00;36.50;;;;;;5071976;28;20250;-51
2023/07/24 03:58:52;;;;;;;5.07;4.30;;;25.00;36.00;;;;;;5071740;28;20183;-53
2023/07/24 04:01:17;;;;;;;4.53;3.40;;;25.00;36.00;;;;;;5071545;28;20196;-53
2023/07/24 04:03:43;;;;;;;10.27;4.97;;;25.00;35.90;;;;;;5071648;28;20422;-52
2023/07/24 04:06:09;;;;;;;5.43;4.23;;;25.00;35.70;;;;;;5071745;28;20446;-53
2023/07/24 04:08:35;;;;;;;6.10;4.50;;;25.00;35.90;;;;;;5071573;28;20449;-52
2023/07/24 04:11:01;;;;;;;9.50;4.73;;;25.10;36.30;;;;;;5071452;28;20462;-54
2023/07/24 04:13:27;;;;;;;7.67;4.73;;;25.10;36.10;;;;;;5071667;28;20717;-51
2023/07/24 04:15:52;;;;;;;5.53;4.27;;;25.10;36.20;;;;;;5071586;28;20199;-54
2023/07/24 04:18:18;;;;;;;5.73;4.37;;;25.10;36.30;;;;;;5071628;28;20219;-51
2023/07/24 04:20:44;;;;;;;5.70;4.00;;;25.10;36.50;;;;;;5071308;28;20200;-50
2023/07/24 04:23:10;;;;;;;7.00;5.17;;;25.10;36.60;;;;;;5072766;28;20572;-53
2023/07/24 04:25:35;;;;;;;7.30;4.73;;;25.10;36.60;;;;;;5075472;28;20181;-53
2023/07/24 04:28:01;;;;;;;6.97;4.73;;;25.10;36.70;;;;;;5075164;28;20706;-52
2023/07/24 04:30:27;;;;;;;5.60;4.97;;;25.10;36.70;;;;;;5074772;28;20291;-53
2023/07/24 04:32:53;;;;;;;5.77;5.00;;;25.10;36.70;;;;;;5075414;28;20240;-53
2023/07/24 04:35:19;;;;;;;5.70;4.23;;;25.20;36.60;;;;;;5075093;28;20177;-52
2023/07/24 04:37:44;;;;;;;5.67;5.07;;;25.20;36.40;;;;;;5074978;28;20177;-51
2023/07/24 04:40:11;;;;;;;4.73;4.00;;;25.20;36.20;;;;;;5074617;28;20203;-53
2023/07/24 04:42:37;;;;;;;4.90;3.80;;;25.20;36.30;;;;;;5075107;28;20185;-51
2023/07/24 04:45:03;;;;;;;4.03;3.50;;;25.20;36.50;;;;;;5074882;28;20839;-53
2023/07/24 04:47:29;;;;;;;5.60;5.00;;;25.30;36.30;;;;;;5074962;28;20176;-53
2023/07/24 04:49:55;;;;;;;5.20;4.13;;;25.30;35.90;;;;;;5074550;28;20472;-52
2023/07/24 04:52:21;;;;;;;5.53;4.47;;;25.30;35.80;;;;;;5074576;28;20204;-54
2023/07/24 04:54:46;;;;;;;4.30;3.90;;;25.40;35.90;;;;;;5074674;28;20415;-54
2023/07/24 04:57:12;;;;;;;5.53;4.60;;;25.40;36.40;;;;;;5074646;28;20423;-51
2023/07/24 04:59:38;;;;;;;7.90;4.60;;;25.40;36.50;;;;;;5074461;28;20168;-51
2023/07/24 05:02:04;;;;;;;6.57;5.20;;;25.40;36.50;;;;;;5074788;28;20537;-50
2023/07/24 05:04:30;;;;;;;4.60;4.07;;;25.50;36.80;;;;;;5074531;28;20914;-51
2023/07/24 05:06:55;;;;;;;4.30;3.90;;;25.60;36.80;;;;;;5074391;28;20184;-53
2023/07/24 05:09:21;;;;;;;5.90;4.50;;;25.60;36.40;;;;;;5074437;28;20415;-53
2023/07/24 05:11:47;;;;;;;5.40;4.70;;;25.60;36.60;;;;;;5074281;28;20231;-50
2023/07/24 05:14:13;;;;;;;5.10;3.90;;;25.70;36.50;;;;;;5074280;28;20270;-53
2023/07/24 05:16:38;;;;;;;5.20;4.50;;;25.80;36.40;;;;;;5074424;28;20180;-53
2023/07/24 05:19:04;;;;;;;6.53;5.13;;;25.80;36.00;;;;;;5073055;28;20230;-52
2023/07/24 05:21:31;;;;;;;6.93;5.10;;;25.90;35.40;;;;;;5074011;28;20200;-51
2023/07/24 05:23:56;;;;;;;5.67;4.50;;;25.90;35.70;;;;;;5074132;28;20177;-54
2023/07/24 05:26:22;;;;;;;5.27;4.50;;;25.90;35.40;;;;;;5074062;28;20444;-51
2023/07/24 05:28:48;;;;;;;6.73;4.57;;;26.00;36.00;;;;;;5074325;28;20254;-50
2023/07/24 05:31:14;;;;;;;4.97;4.33;;;26.00;36.30;;;;;;5073763;28;20556;-54
2023/07/24 05:33:39;;;;;;;6.87;4.93;;;26.00;35.80;;;;;;5074102;28;20438;-51
2023/07/24 05:36:05;;;;;;;5.10;4.07;;;26.00;36.30;;;;;;5071975;28;20177;-51
2023/07/24 05:38:31;;;;;;;6.00;4.97;;;26.10;36.80;;;;;;5073848;28;20173;-53
2023/07/24 05:40:59;;;;;;;6.23;4.97;;;26.10;36.90;;;;;;5073870;28;20435;-53
2023/07/24 05:43:25;;;;;;;5.93;5.10;;;26.10;36.90;;;;;;5073901;28;20494;-50
2023/07/24 05:45:51;;;;;;;5.63;4.60;;;26.10;36.60;;;;;;5073858;28;20403;-56
2023/07/24 05:48:18;;;;;;;6.00;4.20;;;26.20;36.10;;;;;;5073741;28;20752;-53
2023/07/24 05:50:43;;;;;;;5.03;3.80;;;26.20;35.90;;;;;;5073197;28;20507;-52
2023/07/24 05:53:10;;;;;;;5.30;4.80;;;26.20;35.90;;;;;;5073551;28;20766;-54
2023/07/24 05:55:35;;;;;;;6.43;4.60;;;26.20;36.00;;;;;;5073717;28;20180;-51
2023/07/24 05:58:01;;;;;;;7.37;5.77;;;26.30;36.00;;;;;;5073481;28;20759;-51
2023/07/24 06:00:27;;;;;;;5.10;4.43;;;26.30;36.50;;;;;;5073229;28;20188;-54
2023/07/24 06:02:54;;;;;;;13.77;5.53;;;26.30;36.20;;;;;;5073464;28;20426;-51
2023/07/24 06:05:20;;;;;;;5.63;4.27;;;26.40;36.10;;;;;;5073243;28;20179;-51
2023/07/24 06:07:46;;;;;;;7.20;4.87;;;26.40;35.90;;;;;;5073255;28;20414;-54
2023/07/24 06:10:12;;;;;;;11.87;6.17;;;26.50;35.80;;;;;;5072952;28;20423;-52
2023/07/24 06:12:38;;;;;;;5.83;4.70;;;26.50;36.00;;;;;;5073403;28;20500;-52
2023/07/24 06:15:04;;;;;;;5.70;5.07;;;26.60;36.20;;;;;;5073232;28;20411;-53
2023/07/24 06:17:30;;;;;;;7.40;5.47;;;26.70;35.90;;;;;;5073054;28;20929;-50
2023/07/24 06:19:56;;;;;;;6.00;4.80;;;26.70;36.20;;;;;;5072611;28;20465;-53
2023/07/24 06:22:23;;;;;;;5.80;5.20;;;26.90;36.10;;;;;;5073290;28;20414;-54
2023/07/24 06:24:49;;;;;;;7.20;4.50;;;26.90;35.60;;;;;;5073098;28;20399;-51
2023/07/24 06:27:15;;;;;;;7.43;5.00;;;27.10;36.70;;;;;;5073033;28;20498;-51
2023/07/24 06:29:41;;;;;;;8.03;4.80;;;27.20;36.00;;;;;;5072592;28;20459;-54
2023/07/24 06:32:07;;;;;;;6.33;4.67;;;27.40;35.00;;;;;;5072702;28;20454;-52
2023/07/24 06:34:33;;;;;;;6.50;5.00;;;27.50;35.20;;;;;;5072690;28;20490;-54
2023/07/24 06:36:59;;;;;;;6.00;5.27;;;27.60;35.40;;;;;;5072803;28;20399;-52
2023/07/24 06:39:25;;;;;;;7.60;5.30;;;27.70;35.50;;;;;;5072469;28;20407;-52
2023/07/24 06:41:55;;;;;;;7.20;4.90;;;27.80;35.00;;;;;;5072768;28;20223;-52
2023/07/24 06:44:21;;;;;;;6.70;5.03;;;27.90;34.40;;;;;;5072890;28;20184;-51
2023/07/24 06:46:47;;;;;;;9.50;5.03;;;28.00;33.80;;;;;;5071907;28;20421;-56
2023/07/24 06:49:13;;;;;;;5.27;4.53;;;28.10;34.80;;;;;;5072425;28;20434;-53
2023/07/24 06:51:39;;;;;;;6.80;5.17;;;28.20;32.90;;;;;;5072543;28;20462;-51
2023/07/24 06:54:05;;;;;;;6.23;5.20;;;28.30;32.60;;;;;;5072656;28;20408;-52
2023/07/24 06:56:31;;;;;;;8.03;4.50;;;28.40;31.90;;;;;;5072551;28;20493;-54
2023/07/24 06:58:57;;;;;;;5.90;5.30;;;28.50;31.70;;;;;;5072407;28;20846;-51
2023/07/24 07:01:23;;;;;;;7.30;5.10;;;28.60;31.30;;;;;;5072086;28;20933;-54
2023/07/24 07:03:49;;;;;;;5.63;4.60;;;28.60;31.30;;;;;;5072366;28;20633;-52
2023/07/24 07:06:15;;;;;;;7.73;6.17;;;28.70;31.10;;;;;;5072207;28;20231;-51
2023/07/24 07:08:41;;;;;;;5.83;4.40;;;28.80;31.00;;;;;;5072509;28;20411;-53
2023/07/24 07:11:07;;;;;;;9.17;4.80;;;28.80;31.10;;;;;;5071766;28;20531;-54
2023/07/24 07:13:33;;;;;;;7.73;4.33;;;28.90;30.90;;;;;;5072129;28;20434;-51
2023/07/24 07:15:59;;;;;;;11.17;5.80;;;29.00;32.00;;;;;;5070850;28;20407;-51
2023/07/24 07:18:24;;;;;;;8.10;5.40;;;29.10;31.30;;;;;;5072070;28;20689;-54
2023/07/24 07:20:52;;;;;;;12.40;5.27;;;29.10;30.90;;;;;;5071790;28;20192;-54
2023/07/24 07:23:18;;;;;;;13.03;5.30;;;29.20;31.30;;;;;;5072018;28;20191;-51
2023/07/24 07:25:45;;;;;;;9.03;4.90;;;29.20;31.50;;;;;;5072069;28;20414;-54
2023/07/24 07:28:15;;;;;;;6.27;4.30;;;29.30;30.80;;;;;;5072027;28;20414;-54
2023/07/24 07:30:41;;;;;;;7.33;4.90;;;29.40;30.30;;;;;;5071532;28;20539;-52
2023/07/24 07:33:07;;;;;;;6.00;5.33;;;29.40;32.60;;;;;;5072213;28;20415;-52
2023/07/24 07:35:34;;;;;;;4.83;4.30;;;29.40;30.70;;;;;;5072125;28;20529;-54
2023/07/24 07:38:01;;;;;;;6.33;5.20;;;29.60;28.60;;;;;;5072075;28;20460;-50
2023/07/24 07:40:27;;;;;;;8.13;5.17;;;29.50;28.80;;;;;;5071569;28;20527;-50
2023/07/24 07:42:56;;;;;;;6.30;5.13;;;29.60;29.60;;;;;;5071837;28;20911;-56
2023/07/24 07:45:23;;;;;;;5.23;4.40;;;29.50;28.20;;;;;;5071664;28;20407;-52
2023/07/24 07:47:50;;;;;;;5.83;4.90;;;29.60;27.70;;;;;;5072092;28;20410;-52
2023/07/24 07:50:16;;;;;;;8.20;6.27;;;29.60;28.60;;;;;;5071536;28;20431;-53
2023/07/24 07:52:41;;;;;;;6.67;5.03;;;29.60;29.60;;;;;;5071721;28;20475;-51
2023/07/24 07:55:08;;;;;;;6.53;5.03;;;29.70;28.60;;;;;;5071771;28;20419;-50
2023/07/24 07:57:37;;;;;;;8.00;4.77;;;29.70;28.90;;;;;;5072002;28;20173;-54
2023/07/24 08:00:04;;;;;;;6.20;4.37;;;29.70;29.30;;;;;;5075503;28;21104;-54
2023/07/24 08:02:31;;;;;;;7.27;4.80;;;29.80;27.90;;;;;;5075773;28;20403;-52
2023/07/24 08:04:58;;;;;;;6.30;5.20;;;29.90;27.80;;;;;;5075904;28;20490;-51
2023/07/24 08:07:23;;;;;;;5.60;4.97;;;30.00;28.80;;;;;;5075628;28;20406;-54
2023/07/24 08:09:49;;;;;;;6.80;5.20;;;30.10;28.40;;;;;;5075260;28;20417;-54
2023/07/24 08:12:15;;;;;;;5.83;5.10;;;30.20;27.70;;;;;;5075364;28;20204;-52
2023/07/24 08:14:41;;;;;;;5.50;4.53;;;30.20;26.90;;;;;;5073478;28;20442;-54
2023/07/24 08:17:07;;;;;;;6.20;5.23;;;30.30;27.80;;;;;;5075413;28;20502;-51
2023/07/24 08:19:33;;;;;;;5.30;4.77;;;30.40;27.40;;;;;;5075209;28;20256;-53
2023/07/24 08:21:58;;;;;;;5.83;5.33;;;30.50;27.40;;;;;;5075255;28;20270;-54
2023/07/24 08:24:24;;;;;;;4.60;4.20;;;30.70;27.40;;;;;;5075321;28;20169;-52
2023/07/24 08:26:50;;;;;;;7.03;5.60;;;30.80;27.60;;;;;;5075190;28;20177;-54
2023/07/24 08:29:16;;;;;;;6.73;4.93;;;31.00;27.00;;;;;;5074926;28;20254;-53
2023/07/24 08:31:42;;;;;;;5.13;4.63;;;31.00;26.10;;;;;;5075023;28;20454;-51
2023/07/24 08:34:08;;;;;;;7.97;5.63;;;31.10;26.70;;;;;;5075261;28;20708;-54
2023/07/24 08:36:33;;;;;;;7.53;5.43;;;31.30;27.50;;;;;;5075097;28;20215;-51
2023/07/24 08:38:59;;;;;;;6.93;5.30;;;31.40;27.60;;;;;;5075057;28;20187;-53
2023/07/24 08:41:25;;;;;;;6.60;4.97;;;31.60;25.70;;;;;;5074663;28;20219;-53
2023/07/24 08:43:53;;;;;;;10.07;5.10;;;31.70;25.70;;;;;;5075240;28;20206;-53
2023/07/24 08:46:20;;;;;;;5.83;5.13;;;31.80;24.90;;;;;;5074871;28;20187;-53
2023/07/24 08:48:46;;;;;;;6.10;5.30;;;31.80;24.10;;;;;;5074968;28;20484;-52
2023/07/24 08:51:13;;;;;;;6.00;5.40;;;31.70;25.00;;;;;;5074344;28;20882;-54
2023/07/24 08:53:41;;;;;;;8.87;5.90;;;31.70;23.80;;;;;;5074872;28;20169;-52
2023/07/24 08:56:09;;;;;;;5.70;4.67;;;31.70;23.80;;;;;;5074634;28;20452;-51
2023/07/24 08:58:36;;;;;;;8.43;6.17;;;31.70;25.10;;;;;;5074676;28;20922;-54
2023/07/24 09:01:03;;;;;;;6.77;5.50;;;31.80;24.70;;;;;;5074327;28;20441;-51
2023/07/24 09:03:31;;;;;;;6.87;5.73;;;31.80;25.00;;;;;;5074533;28;20870;-51
2023/07/24 09:05:57;;;;;;;8.67;5.27;;;31.90;26.10;;;;;;5074673;28;20434;-55
2023/07/24 09:08:33;;;;;;;5.80;5.20;;;31.90;27.10;;;;;;5074521;28;20403;-52
2023/07/24 09:11:00;;;;;;;6.30;5.20;;;32.00;25.80;;;;;;5072410;28;20549;-54
2023/07/24 09:13:26;;;;;;;6.60;5.90;;;31.90;25.60;;;;;;5074326;28;20426;-52
2023/07/24 09:15:52;;;;;;;6.97;6.07;;;31.90;26.10;;;;;;5074401;28;20399;-52
2023/07/24 09:18:19;;;;;;;7.07;5.57;;;32.00;26.70;;;;;;5073597;28;20445;-51
2023/07/24 09:20:45;;;;;;;6.90;5.97;;;32.00;25.00;;;;;;5074071;28;20552;-52
2023/07/24 09:23:12;;;;;;;11.70;5.33;;;32.00;25.40;;;;;;5074173;28;20418;-53
2023/07/24 09:25:40;;;;;;;8.77;5.67;;;32.10;25.00;;;;;;5074176;28;20408;-51
2023/07/24 09:28:16;;;;;;;7.97;6.00;;;32.10;26.20;;;;;;5073978;28;20403;-52
2023/07/24 09:30:55;;;;;;;10.40;6.00;;;32.00;26.10;;;;;;5073792;28;20760;-55
2023/07/24 09:33:24;;;;;;;7.73;5.90;;;32.00;26.20;;;;;;5073388;28;20403;-51
2023/07/24 09:36:03;;;;;;;7.27;6.57;;;32.00;25.80;;;;;;5070495;28;20406;-51
2023/07/24 09:38:29;;;;;;;7.57;5.80;;;32.00;26.10;;;;;;5074062;28;20801;-51
2023/07/24 09:40:56;;;;;;;8.30;5.60;;;31.90;25.20;;;;;;5073536;28;20414;-51
2023/07/24 09:43:23;;;;;;;7.33;6.27;;;31.90;25.30;;;;;;5073716;28;20899;-56
2023/07/24 09:45:50;;;;;;;13.90;6.57;;;31.90;25.80;;;;;;5073731;28;20406;-55
2023/07/24 09:48:17;;;;;;;7.70;6.57;;;31.90;27.20;;;;;;5073606;28;20410;-50
2023/07/24 09:50:48;;;;;;;10.63;7.00;;;32.00;26.90;;;;;;5073264;28;20422;-52
2023/07/24 09:53:43;;;;;;;10.93;6.70;;;32.00;26.60;;;;;;5073726;28;20836;-54
2023/07/24 09:56:10;;;;;;;9.03;7.30;;;32.00;27.50;;;;;;5072738;28;20416;-51
2023/07/24 09:58:38;;;;;;;10.53;6.67;;;32.00;26.80;;;;;;5073342;28;20410;-52
2023/07/24 10:01:07;;;;;;;9.77;7.13;;;32.00;26.40;;;;;;5071992;28;20430;-51
2023/07/24 10:03:46;;;;;;;7.87;6.90;;;32.00;27.40;;;;;;5067653;28;20783;-52
2023/07/24 10:06:14;;;;;;;10.23;6.93;;;32.00;27.00;;;;;;5073519;28;20411;-54
2023/07/24 10:08:41;;;;;;;8.53;7.00;;;32.00;27.30;;;;;;5073393;28;20406;-52
2023/07/24 10:11:09;;;;;;;8.73;6.70;;;32.00;27.20;;;;;;5072877;28;20533;-50
2023/07/24 10:13:36;;;;;;;7.83;6.40;;;31.90;26.60;;;;;;5073179;28;20426;-54
2023/07/24 10:16:04;;;;;;;13.27;6.53;;;31.90;26.20;;;;;;5073621;28;20430;-53
2023/07/24 10:18:31;;;;;;;11.10;6.87;;;31.90;26.80;;;;;;5073128;28;20917;-51
2023/07/24 10:21:05;;;;;;;8.17;6.57;;;31.90;26.40;;;;;;5072643;28;20572;-53
2023/07/24 10:23:46;;;;;;;7.60;6.80;;;31.90;26.40;;;;;;5066997;28;20407;-52
2023/07/24 10:26:12;;;;;;;7.63;6.07;;;31.90;26.50;;;;;;5072980;28;20929;-54
2023/07/24 10:28:40;;;;;;;8.10;6.50;;;31.90;26.00;;;;;;5073087;28;20513;-51
2023/07/24 10:31:18;;;;;;;7.73;6.97;;;31.90;26.00;;;;;;5072668;28;20504;-55
2023/07/24 10:33:47;;;;;;;6.17;5.57;;;31.90;26.30;;;;;;5072803;28;20464;-54
2023/07/24 10:36:19;;;;;;;6.37;5.70;;;31.90;27.40;;;;;;5072721;28;20921;-51
2023/07/24 10:38:46;;;;;;;8.30;6.00;;;31.90;26.90;;;;;;5072756;28;20828;-54
2023/07/24 10:41:12;;;;;;;10.30;6.50;;;31.80;26.40;;;;;;5072476;28;20434;-52
2023/07/24 10:43:49;;;;;;;6.60;6.00;;;31.80;29.00;;;;;;5072800;28;20407;-52
2023/07/24 10:46:17;;;;;;;7.60;6.40;;;31.60;30.80;;;;;;5072629;28;20168;-53
2023/07/24 10:48:48;;;;;;;8.00;7.17;;;31.30;31.50;;;;;;5072523;28;20414;-52
2023/07/24 10:51:14;;;;;;;8.27;6.50;;;31.00;32.20;;;;;;5072116;28;20462;-51
2023/07/24 10:53:45;;;;;;;7.97;6.60;;;30.80;32.00;;;;;;5072572;28;20401;-53
2023/07/24 10:56:11;;;;;;;8.23;7.00;;;30.70;32.90;;;;;;5072579;28;20485;-52
2023/07/24 10:58:37;;;;;;;7.60;6.20;;;30.60;33.20;;;;;;5072438;28;20485;-50
2023/07/24 11:01:07;;;;;;;7.50;6.17;;;30.60;34.20;;;;;;5071935;28;20427;-54
2023/07/24 11:03:36;;;;;;;7.17;6.23;;;30.50;34.30;;;;;;5072408;28;20168;-51
2023/07/24 11:06:02;;;;;;;7.93;7.07;;;30.50;34.40;;;;;;5072293;28;20453;-51
2023/07/24 11:08:29;;;;;;;6.83;6.00;;;30.50;33.70;;;;;;5072207;28;20411;-54
2023/07/24 11:10:57;;;;;;;7.50;6.13;;;30.40;33.10;;;;;;5071988;28;20556;-52
2023/07/24 11:13:27;;;;;;;8.10;6.97;;;30.50;33.60;;;;;;5072184;28;20425;-51
2023/07/24 11:15:54;;;;;;;8.93;7.30;;;30.50;33.00;;;;;;5072121;28;20407;-53
2023/07/24 11:18:22;;;;;;;8.43;7.20;;;30.60;32.90;;;;;;5072189;28;20403;-51
2023/07/24 11:20:55;;;;;;;10.13;8.40;;;30.70;33.20;;;;;;5071870;28;20423;-54
2023/07/24 11:23:25;;;;;;;8.60;7.67;;;30.80;33.70;;;;;;5072170;28;20478;-54
2023/07/24 11:25:53;;;;;;;9.17;7.67;;;30.90;32.50;;;;;;5071999;28;20407;-51
2023/07/24 11:28:19;;;;;;;9.27;6.97;;;31.00;31.10;;;;;;5070662;28;20870;-54
2023/07/24 11:30:45;;;;;;;8.87;6.63;;;31.00;30.90;;;;;;5071793;28;20533;-52
2023/07/24 11:33:12;;;;;;;13.93;6.80;;;31.00;32.10;;;;;;5071519;28;20494;-52
2023/07/24 11:35:40;;;;;;;9.63;8.20;;;31.10;32.10;;;;;;5072094;28;20230;-54
2023/07/24 11:38:10;;;;;;;14.23;7.57;;;31.00;33.20;;;;;;5072015;28;20414;-51
2023/07/24 11:40:36;;;;;;;10.17;7.30;;;30.90;31.00;;;;;;5071606;28;20430;-54
2023/07/24 11:43:03;;;;;;;9.70;8.03;;;30.80;30.50;;;;;;5071956;28;20407;-54
2023/07/24 11:45:30;;;;;;;8.50;7.20;;;30.80;30.30;;;;;;5072165;28;20188;-51
2023/07/24 11:47:56;;;;;;;7.53;6.60;;;30.70;29.70;;;;;;5071829;28;20446;-55
2023/07/24 11:50:23;;;;;;;8.30;7.37;;;30.70;29.80;;;;;;5071837;28;20514;-52
2023/07/24 11:52:51;;;;;;;14.47;6.83;;;30.70;30.10;;;;;;5071755;28;20458;-52
2023/07/24 11:55:30;;;;;;;9.80;7.00;;;30.60;30.00;;;;;;5071741;28;20913;-54
2023/07/24 11:58:00;;;;;;;10.20;6.77;;;30.70;29.40;;;;;;5071780;28;20948;-51
2023/07/24 12:00:27;;;;;;;8.63;7.73;;;30.70;29.40;;;;;;5071349;28;20513;-55
2023/07/24 12:02:58;;;;;;;7.23;6.30;;;30.70;29.90;;;;;;5071663;28;20936;-54
2023/07/24 12:05:24;;;;;;;8.30;7.40;;;30.70;29.90;;;;;;5071838;28;20417;-52
2023/07/24 12:07:54;;;;;;;8.47;7.57;;;30.70;30.00;;;;;;5071625;28;20764;-54
2023/07/24 12:10:27;;;;;;;9.87;8.57;;;30.80;30.80;;;;;;5071355;28;20512;-55
2023/07/24 12:12:54;;;;;;;9.43;7.83;;;30.80;31.10;;;;;;5071443;28;20454;-52
2023/07/24 12:15:20;;;;;;;8.20;7.13;;;30.80;31.10;;;;;;5071607;28;20425;-54
2023/07/24 12:17:45;;;;;;;9.20;7.90;;;30.80;31.80;;;;;;5071522;28;20407;-52
2023/07/24 12:20:11;;;;;;;8.57;6.83;;;30.90;31.50;;;;;;5071138;28;20201;-52
2023/07/24 12:22:38;;;;;;;7.60;6.50;;;30.90;31.90;;;;;;5071754;28;20202;-52
2023/07/24 12:25:06;;;;;;;11.40;7.50;;;30.90;32.10;;;;;;5071521;28;20177;-53
2023/07/24 12:27:32;;;;;;;11.17;7.37;;;30.80;32.40;;;;;;5071469;28;20414;-51
2023/07/24 12:29:59;;;;;;;8.17;7.03;;;30.50;32.40;;;;;;5071026;28;20410;-53
2023/07/24 12:32:25;;;;;;;10.73;8.27;;;30.80;31.80;;;;;;5071312;28;20533;-51
2023/07/24 12:34:51;;;;;;;8.60;7.67;;;30.80;32.10;;;;;;5071332;28;20506;-54
2023/07/24 12:37:18;;;;;;;10.90;8.00;;;30.70;33.60;;;;;;5071428;28;20169;-51
2023/07/24 12:39:47;;;;;;;11.23;7.80;;;30.60;34.20;;;;;;5071102;28;20506;-51
2023/07/24 12:42:14;;;;;;;9.57;7.60;;;30.50;31.70;;;;;;5071589;28;20774;-51
2023/07/24 12:44:40;;;;;;;8.10;7.30;;;30.40;31.50;;;;;;5073181;28;20414;-54